createdAt,value
2023-01-17T00:01:20.257Z,100241.25
2023-01-17T00:04:08.796Z,100236.50
2023-01-17T00:06:58.651Z,100246.78
2023-01-17T00:10:04.965Z,100248.34
2023-01-17T00:12:41.268Z,100253.88
2023-01-17T00:15:11.025Z,100255.84
2023-01-17T00:17:41.205Z,100268.03
2023-01-17T00:20:37.303Z,100259.34
2023-01-17T00:23:35.130Z,100265.59
2023-01-17T00:26:07.409Z,100273.50
2023-01-17T00:28:38.849Z,100272.63
2023-01-17T00:31:18.041Z,100273.84
2023-01-17T00:33:49.552Z,100282.84
2023-01-17T00:36:18.381Z,100279.75
2023-01-17T00:38:49.376Z,100282.88
2023-01-17T00:41:27.464Z,100284.53
2023-01-17T00:44:15.228Z,100288.09
2023-01-17T00:47:06.068Z,100296.31
2023-01-17T00:49:56.695Z,100296.28
2023-01-17T00:52:44.252Z,100293.13
2023-01-17T00:55:32.278Z,100296.22
2023-01-17T00:58:26.500Z,100300.91
2023-01-17T01:01:14.703Z,100302.41
2023-01-17T01:04:03.577Z,100303.91
2023-01-17T01:06:50.880Z,100307.81
2023-01-17T01:09:37.622Z,100312.00
2023-01-17T01:12:25.168Z,100319.06
2023-01-17T01:15:13.202Z,100321.75
2023-01-17T01:18:00.467Z,100323.63
2023-01-17T01:20:48.260Z,100328.66
2023-01-17T01:23:35.519Z,100320.75
2023-01-17T01:26:23.373Z,100325.00
2023-01-17T01:29:10.765Z,100331.28
2023-01-17T01:31:58.468Z,100323.38
2023-01-17T01:34:50.696Z,100335.53
2023-01-17T01:37:19.806Z,100339.44
2023-01-17T01:39:48.761Z,100339.00
2023-01-17T01:42:18.369Z,100345.69
2023-01-17T01:44:50.262Z,100341.72
2023-01-17T01:47:36.552Z,100347.09
2023-01-17T01:50:11.330Z,100349.34
2023-01-17T01:52:45.826Z,100346.91
2023-01-17T01:55:20.145Z,100348.50
2023-01-17T01:57:54.081Z,100346.09
2023-01-17T02:00:37.823Z,100350.38
2023-01-17T02:03:11.923Z,100349.19
2023-01-17T02:05:53.598Z,100353.59
2023-01-17T02:08:25.656Z,100350.31
2023-01-17T02:10:55.345Z,100355.44
2023-01-17T02:13:24.766Z,100361.25
2023-01-17T02:16:21.951Z,100355.31
2023-01-17T02:19:15.055Z,100364.78
2023-01-17T02:22:30.104Z,100369.66
2023-01-17T02:25:44.810Z,100368.28
2023-01-17T02:28:22.753Z,100356.06
2023-01-17T02:30:58.758Z,100373.19
2023-01-17T02:33:52.231Z,100364.66
2023-01-17T02:36:54.339Z,100374.31
2023-01-17T02:39:38.400Z,100369.75
2023-01-17T02:42:17.188Z,100379.69
2023-01-17T02:44:46.282Z,100379.34
2023-01-17T02:47:27.731Z,100388.22
2023-01-17T02:50:02.949Z,100385.34
2023-01-17T02:52:54.423Z,100388.91
2023-01-17T02:55:26.400Z,100391.59
2023-01-17T02:58:22.008Z,100384.78
2023-01-17T03:01:21.780Z,100389.88
2023-01-17T03:04:28.018Z,100385.97
2023-01-17T03:07:04.446Z,100390.94
2023-01-17T03:09:34.334Z,100397.84
2023-01-17T03:12:05.521Z,100409.47
2023-01-17T03:14:35.118Z,100411.72
2023-01-17T03:17:04.216Z,100403.25
2023-01-17T03:19:33.260Z,100410.25
2023-01-17T03:22:03.282Z,100412.03
2023-01-17T03:24:34.570Z,100412.19
2023-01-17T03:27:03.617Z,100420.31
2023-01-17T03:29:32.737Z,100416.56
2023-01-17T03:32:02.071Z,100407.97
2023-01-17T03:34:37.410Z,100414.44
2023-01-17T03:37:09.124Z,100411.75
2023-01-17T03:39:38.184Z,100415.97
2023-01-17T03:42:07.233Z,100418.44
2023-01-17T03:44:39.423Z,100418.00
2023-01-17T03:47:12.767Z,100422.53
2023-01-17T03:49:44.715Z,100429.00
2023-01-17T03:52:13.709Z,100424.50
2023-01-17T03:54:42.671Z,100423.84
2023-01-17T03:57:13.154Z,100423.84
2023-01-17T03:59:42.077Z,100421.03
2023-01-17T04:02:11.641Z,100424.97
2023-01-17T04:04:40.739Z,100429.84
2023-01-17T04:07:09.641Z,100433.63
2023-01-17T04:09:41.442Z,100431.25
2023-01-17T04:12:12.531Z,100432.09
2023-01-17T04:14:41.981Z,100437.06
2023-01-17T04:17:15.478Z,100434.81
2023-01-17T04:19:44.439Z,100439.72
2023-01-17T04:22:14.418Z,100444.06
2023-01-17T04:24:43.432Z,100447.81
2023-01-17T04:27:15.223Z,100444.88
2023-01-17T04:29:46.599Z,100453.03
2023-01-17T04:32:15.861Z,100451.31
2023-01-17T04:34:47.879Z,100461.94
2023-01-17T04:37:16.860Z,100458.28
2023-01-17T04:39:48.843Z,100455.09
2023-01-17T04:42:18.005Z,100458.38
2023-01-17T04:44:47.887Z,100469.84
2023-01-17T04:47:16.806Z,100458.84
2023-01-17T04:49:47.753Z,100462.34
2023-01-17T04:52:19.490Z,100462.34
2023-01-17T04:54:50.404Z,100464.19
2023-01-17T04:57:20.671Z,100459.78
2023-01-17T04:59:49.632Z,100455.66
2023-01-17T05:02:18.546Z,100460.88
2023-01-17T05:04:50.572Z,100462.03
2023-01-17T05:07:19.705Z,100467.78
2023-01-17T05:09:49.034Z,100460.31
2023-01-17T05:12:17.983Z,100461.75
2023-01-17T05:14:51.387Z,100465.06
2023-01-17T05:17:21.054Z,100467.97
2023-01-17T05:19:50.037Z,100475.56
2023-01-17T05:22:33.687Z,100469.28
2023-01-17T05:25:30.214Z,100476.72
2023-01-17T05:28:04.191Z,100466.94
2023-01-17T05:30:35.940Z,100478.53
2023-01-17T05:33:08.843Z,100469.75
2023-01-17T05:35:49.620Z,100475.00
2023-01-17T05:38:19.091Z,100467.06
2023-01-17T05:40:49.034Z,100472.34
2023-01-17T05:43:18.114Z,100467.34
2023-01-17T05:45:50.694Z,100471.22
2023-01-17T05:48:19.744Z,100470.34
2023-01-17T05:50:49.362Z,100473.06
2023-01-17T05:53:18.650Z,100471.44
2023-01-17T05:55:50.735Z,100468.09
2023-01-17T05:58:23.227Z,100475.50
2023-01-17T06:00:57.570Z,100476.88
2023-01-17T06:03:32.162Z,100480.09
2023-01-17T06:06:01.155Z,100479.25
2023-01-17T06:08:30.037Z,100479.50
2023-01-17T06:11:02.193Z,100483.41
2023-01-17T06:13:33.882Z,100479.25
2023-01-17T06:16:04.922Z,100480.69
2023-01-17T06:18:34.788Z,100484.03
2023-01-17T06:21:03.727Z,100488.06
2023-01-17T06:23:33.069Z,100486.72
2023-01-17T06:26:05.288Z,100488.69
2023-01-17T06:28:36.929Z,100496.16
2023-01-17T06:31:10.347Z,100492.03
2023-01-17T06:33:41.327Z,100496.63
2023-01-17T06:36:10.548Z,100488.91
2023-01-17T06:38:41.931Z,100489.19
2023-01-17T06:41:13.185Z,100502.81
2023-01-17T06:43:42.207Z,100497.19
2023-01-17T06:46:13.240Z,100502.69
2023-01-17T06:48:44.455Z,100507.81
2023-01-17T06:51:16.370Z,100500.78
2023-01-17T06:53:45.548Z,100502.81
2023-01-17T06:56:14.439Z,100503.34
2023-01-17T06:58:43.436Z,100506.69
2023-01-17T07:01:16.760Z,100513.81
2023-01-17T07:03:45.848Z,100525.81
2023-01-17T07:06:14.732Z,100527.69
2023-01-17T07:08:43.701Z,100511.63
2023-01-17T07:11:13.196Z,100528.84
2023-01-17T07:13:42.350Z,100517.97
2023-01-17T07:16:18.691Z,100524.53
2023-01-17T07:18:48.152Z,100530.16
2023-01-17T07:21:17.415Z,100540.34
2023-01-17T07:23:46.427Z,100531.72
2023-01-17T07:26:19.824Z,100526.31
2023-01-17T07:28:48.952Z,100530.31
2023-01-17T07:31:17.791Z,100520.56
2023-01-17T07:33:46.782Z,100528.53
2023-01-17T07:36:15.730Z,100528.09
2023-01-17T07:38:47.518Z,100533.53
2023-01-17T07:41:16.565Z,100533.81
2023-01-17T07:43:48.348Z,100532.13
2023-01-17T07:46:17.727Z,100534.97
2023-01-17T07:48:46.627Z,100527.59
2023-01-17T07:51:18.785Z,100530.16
2023-01-17T07:53:47.765Z,100530.25
2023-01-17T07:56:16.611Z,100533.97
2023-01-17T07:58:45.719Z,100530.69
2023-01-17T08:01:17.903Z,100535.50
2023-01-17T08:03:49.197Z,100543.91
2023-01-17T08:06:21.509Z,100539.84
2023-01-17T08:08:52.363Z,100534.47
2023-01-17T08:11:23.281Z,100530.56
2023-01-17T08:13:58.158Z,100531.16
2023-01-17T08:16:29.329Z,100548.66
2023-01-17T08:19:01.674Z,100536.13
2023-01-17T08:21:30.677Z,100545.78
2023-01-17T08:23:59.736Z,100545.94
2023-01-17T08:26:28.744Z,100554.22
2023-01-17T08:29:01.214Z,100549.69
2023-01-17T08:31:33.240Z,100553.13
2023-01-17T08:34:03.396Z,100546.03
2023-01-17T08:36:32.501Z,100549.78
2023-01-17T08:39:01.741Z,100548.00
2023-01-17T08:41:30.735Z,100539.56
2023-01-17T08:43:59.951Z,100544.97
2023-01-17T08:46:32.092Z,100556.53
2023-01-17T08:49:03.520Z,100555.72
2023-01-17T08:51:35.934Z,100551.19
2023-01-17T08:54:05.416Z,100548.56
2023-01-17T08:56:36.930Z,100548.09
2023-01-17T08:59:05.881Z,100553.81
2023-01-17T09:01:41.453Z,100557.22
2023-01-17T09:04:12.108Z,100559.88
2023-01-17T09:06:48.998Z,100560.22
2023-01-17T09:09:19.027Z,100557.75
2023-01-17T09:11:48.064Z,100563.16
2023-01-17T09:14:20.174Z,100564.94
2023-01-17T09:16:49.515Z,100563.03
2023-01-17T09:19:18.775Z,100564.47
2023-01-17T09:21:47.732Z,100569.97
2023-01-17T09:24:17.761Z,100569.91
2023-01-17T09:26:46.685Z,100572.47
2023-01-17T09:29:19.523Z,100572.84
2023-01-17T09:31:48.932Z,100567.50
2023-01-17T09:34:19.459Z,100569.09
2023-01-17T09:36:48.414Z,100573.06
2023-01-17T09:39:18.688Z,100571.91
2023-01-17T09:41:50.254Z,100579.06
2023-01-17T09:44:37.044Z,100574.78
2023-01-17T09:47:29.042Z,100569.97
2023-01-17T09:50:04.672Z,100575.34
2023-01-17T09:52:34.232Z,100582.53
2023-01-17T09:55:03.531Z,100589.44
2023-01-17T09:58:12.364Z,100584.13
2023-01-17T10:01:00.463Z,100580.13
2023-01-17T10:03:49.946Z,100582.06
2023-01-17T10:06:44.207Z,100584.72
2023-01-17T10:09:34.930Z,100590.06
2023-01-17T10:12:20.099Z,100588.53
2023-01-17T10:15:18.963Z,100588.69
2023-01-17T10:17:47.887Z,100601.41
2023-01-17T10:20:51.970Z,100607.22
2023-01-17T10:23:53.307Z,100608.75
2023-01-17T10:26:26.357Z,100611.09
2023-01-17T10:29:01.829Z,100607.72
2023-01-17T10:31:56.684Z,100609.78
2023-01-17T10:34:44.283Z,100605.50
2023-01-17T10:37:41.409Z,100609.47
2023-01-17T10:40:29.487Z,100614.34
2023-01-17T10:43:14.504Z,100623.06
2023-01-17T10:45:54.499Z,100633.28
2023-01-17T10:48:35.593Z,100624.50
2023-01-17T10:51:13.648Z,100618.78
2023-01-17T10:53:42.533Z,100623.59
2023-01-17T10:56:18.830Z,100613.84
2023-01-17T10:58:50.267Z,100620.78
2023-01-17T11:01:22.743Z,100622.16
2023-01-17T11:03:55.402Z,100629.09
2023-01-17T11:06:26.694Z,100633.72
2023-01-17T11:08:59.582Z,100631.78
2023-01-17T11:11:37.177Z,100628.50
2023-01-17T11:14:20.016Z,100631.53
2023-01-17T11:17:04.444Z,100628.75
2023-01-17T11:19:39.390Z,100621.53
2023-01-17T11:22:15.063Z,100624.31
2023-01-17T11:24:56.262Z,100627.31
2023-01-17T11:27:25.179Z,100631.03
2023-01-17T11:30:10.232Z,100632.97
2023-01-17T11:32:39.555Z,100641.81
2023-01-17T11:35:21.403Z,100641.88
2023-01-17T11:37:58.764Z,100645.63
2023-01-17T11:40:30.398Z,100648.19
2023-01-17T11:43:22.987Z,100645.63
2023-01-17T11:46:07.547Z,100646.78
2023-01-17T11:48:39.320Z,100646.50
2023-01-17T11:51:29.155Z,100643.09
2023-01-17T11:54:15.535Z,100650.06
2023-01-17T11:56:47.016Z,100648.25
2023-01-17T11:59:31.318Z,100663.44
2023-01-17T12:02:24.775Z,100652.97
2023-01-17T12:05:04.265Z,100663.75
2023-01-17T12:07:46.318Z,100673.06
2023-01-17T12:10:27.358Z,100681.59
2023-01-17T12:13:26.923Z,100680.25
2023-01-17T12:16:30.989Z,100682.38
2023-01-17T12:19:46.396Z,100681.41
2023-01-17T12:22:45.261Z,100679.34
2023-01-17T12:25:23.307Z,100675.81
2023-01-17T12:28:07.630Z,100674.03
2023-01-17T12:30:44.622Z,100673.69
2023-01-17T12:33:48.812Z,100668.09
2023-01-17T12:36:23.824Z,100669.84
2023-01-17T12:38:52.783Z,100673.56
2023-01-17T12:41:27.378Z,100680.69
2023-01-17T12:44:00.216Z,100683.44
2023-01-17T12:46:42.104Z,100683.38
2023-01-17T12:49:42.563Z,100693.59
2023-01-17T12:52:26.373Z,100692.69
2023-01-17T12:55:03.259Z,100703.16
2023-01-17T12:58:01.120Z,100695.34
2023-01-17T13:00:30.873Z,100691.38
2023-01-17T13:03:27.786Z,100686.13
2023-01-17T13:05:58.496Z,100691.63
2023-01-17T13:08:50.463Z,100679.19
2023-01-17T13:11:47.298Z,100673.16
2023-01-17T13:14:16.501Z,100681.13
2023-01-17T13:16:55.789Z,100676.16
2023-01-17T13:19:51.602Z,100681.84
2023-01-17T13:22:24.943Z,100673.88
2023-01-17T13:25:05.550Z,100685.31
2023-01-17T13:28:03.186Z,100680.69
2023-01-17T13:30:53.303Z,100682.53
2023-01-17T13:33:23.314Z,100687.88
2023-01-17T13:36:06.861Z,100674.84
2023-01-17T13:38:58.065Z,100666.59
2023-01-17T13:41:59.314Z,100668.88
2023-01-17T13:44:30.875Z,100677.13
2023-01-17T13:47:07.421Z,100675.47
2023-01-17T13:49:46.112Z,100682.56
2023-01-17T13:52:22.608Z,100685.75
2023-01-17T13:54:52.550Z,100691.38
2023-01-17T13:57:32.127Z,100687.97
2023-01-17T14:00:26.321Z,100693.91
2023-01-17T14:02:55.708Z,100696.78
2023-01-17T14:05:40.075Z,100693.75
2023-01-17T14:08:23.383Z,100695.81
2023-01-17T14:10:55.778Z,100702.81
2023-01-17T14:13:40.515Z,100700.84
2023-01-17T14:16:31.238Z,100699.50
2023-01-17T14:19:19.988Z,100701.69
2023-01-17T14:21:51.369Z,100701.16
2023-01-17T14:24:24.011Z,100701.88
2023-01-17T14:27:16.054Z,100688.69
2023-01-17T14:29:54.745Z,100695.50
2023-01-17T14:32:36.191Z,100699.41
2023-01-17T14:35:06.503Z,100692.88
2023-01-17T14:38:19.796Z,100688.72
2023-01-17T14:40:56.788Z,100683.97
2023-01-17T14:43:29.388Z,100687.97
2023-01-17T14:46:01.434Z,100690.63
2023-01-17T14:48:31.094Z,100685.88
2023-01-17T14:51:01.334Z,100695.19
2023-01-17T14:53:31.633Z,100690.47
2023-01-17T14:56:19.103Z,100702.06
2023-01-17T14:58:50.238Z,100699.44
2023-01-17T15:01:20.866Z,100705.66
2023-01-17T15:03:55.759Z,100705.31
2023-01-17T15:06:42.787Z,100709.91
2023-01-17T15:25:11.139Z,100724.31
2023-01-17T15:27:43.374Z,100723.78
2023-01-17T15:30:19.458Z,100727.50
2023-01-17T15:32:50.027Z,100724.66
2023-01-17T15:35:20.485Z,100725.16
2023-01-17T15:37:55.520Z,100730.94
2023-01-17T15:40:26.625Z,100724.66
2023-01-17T15:43:00.172Z,100735.50
2023-01-17T15:45:34.489Z,100740.59
2023-01-17T15:48:39.527Z,100762.66
2023-01-17T15:51:11.967Z,100766.84
2023-01-17T15:53:43.366Z,100763.56
2023-01-17T15:56:27.563Z,100763.41
2023-01-17T15:58:56.919Z,100767.44
2023-01-17T16:01:28.421Z,100770.84
2023-01-17T16:03:57.432Z,100772.63
2023-01-17T16:06:39.275Z,100774.13
2023-01-17T16:09:22.818Z,100770.41
2023-01-17T16:11:52.072Z,100785.63
2023-01-17T16:14:24.339Z,100792.81
2023-01-17T16:16:54.703Z,100794.34
2023-01-17T16:19:27.942Z,100794.06
2023-01-17T16:21:57.961Z,100797.19
2023-01-17T16:24:27.030Z,100797.03
2023-01-17T16:26:55.910Z,100797.66
2023-01-17T16:29:25.280Z,100809.81
2023-01-17T16:31:54.401Z,100811.94
2023-01-17T16:34:26.372Z,100807.31
2023-01-17T16:36:55.877Z,100813.63
2023-01-17T16:39:25.005Z,100822.16
2023-01-17T16:42:04.363Z,100819.56
2023-01-17T16:44:38.419Z,100829.44
2023-01-17T16:47:09.890Z,100839.84
2023-01-17T16:58:29.337Z,100852.56
2023-01-17T17:01:01.230Z,100859.59
2023-01-17T17:03:35.697Z,100858.16
2023-01-17T17:06:04.945Z,100872.94
2023-01-17T17:08:38.426Z,100871.75
2023-01-17T17:14:03.465Z,100882.69
2023-01-17T17:25:29.316Z,100904.41
2023-01-17T17:27:58.286Z,100901.53
2023-01-17T17:30:28.498Z,100909.00
2023-01-17T17:32:57.733Z,100924.31
2023-01-17T17:35:26.784Z,100920.72
2023-01-17T17:37:56.967Z,100921.47
2023-01-17T17:40:25.910Z,100924.66
2023-01-17T17:42:54.810Z,100926.91
2023-01-17T17:45:27.066Z,100936.41
2023-01-17T17:47:56.207Z,100935.06
2023-01-17T17:50:25.101Z,100937.72
2023-01-17T17:52:54.320Z,100944.03
2023-01-17T17:55:25.908Z,100942.59
2023-01-17T17:57:55.329Z,100940.03
2023-01-17T18:00:25.014Z,100940.56
2023-01-17T18:02:53.982Z,100940.91
2023-01-17T18:05:23.827Z,100948.59
2023-01-17T18:07:53.031Z,100935.44
2023-01-17T18:10:24.629Z,100941.56
2023-01-17T18:12:53.849Z,100941.72
2023-01-17T18:15:22.735Z,100944.50
2023-01-17T18:17:53.515Z,100936.28
2023-01-17T18:20:22.696Z,100939.94
2023-01-17T18:22:51.614Z,100949.28
2023-01-17T18:25:20.627Z,100953.44
2023-01-17T18:27:49.730Z,100948.38
2023-01-17T18:30:18.958Z,100950.56
2023-01-17T18:32:52.036Z,100954.81
2023-01-17T18:35:20.971Z,100959.25
2023-01-17T18:37:50.495Z,100957.28
2023-01-17T18:40:20.123Z,100953.56
2023-01-17T18:42:50.098Z,100959.34
2023-01-17T18:45:19.073Z,100952.84
2023-01-17T18:47:47.924Z,100949.34
2023-01-17T18:50:17.185Z,100946.06
2023-01-17T18:52:46.132Z,100951.38
2023-01-17T18:55:15.905Z,100954.09
2023-01-17T18:57:48.118Z,100959.00
2023-01-17T19:36:48.190Z,100940.13
2023-01-17T19:39:17.319Z,100942.03
2023-01-17T19:41:49.754Z,100941.00
2023-01-17T19:44:18.960Z,100932.75
2023-01-17T19:46:51.206Z,100935.06
2023-01-17T19:49:25.402Z,100928.16
2023-01-17T19:51:55.009Z,100924.66
2023-01-17T19:54:26.835Z,100917.69
2023-01-17T19:56:55.750Z,100919.38
2023-01-17T19:59:24.984Z,100918.72
2023-01-17T20:01:54.359Z,100921.81
2023-01-17T20:04:26.353Z,100923.06
2023-01-17T20:06:55.401Z,100910.81
2023-01-17T20:09:25.866Z,100915.78
2023-01-17T20:11:55.013Z,100905.69
2023-01-17T20:14:27.149Z,100900.31
2023-01-17T20:16:56.159Z,100903.34
2023-01-17T20:19:25.083Z,100901.88
2023-01-17T20:21:54.603Z,100892.06
2023-01-17T20:24:32.629Z,100894.72
2023-01-17T20:27:02.361Z,100892.72
2023-01-17T20:29:31.653Z,100901.84
2023-01-17T20:32:00.585Z,100891.69
2023-01-17T20:34:29.618Z,100891.06
2023-01-17T20:37:00.160Z,100893.38
2023-01-17T20:39:29.267Z,100890.06
2023-01-17T20:41:58.562Z,100887.34
2023-01-17T20:44:27.935Z,100882.41
2023-01-17T20:46:56.994Z,100887.81
2023-01-17T20:49:26.031Z,100889.59
2023-01-17T20:51:56.210Z,100889.41
2023-01-17T20:54:25.410Z,100904.16
2023-01-17T20:56:54.530Z,100888.88
2023-01-17T20:59:24.277Z,100899.63
2023-01-17T21:06:57.180Z,100890.78
2023-01-17T21:09:52.752Z,100890.69
2023-01-17T21:12:27.055Z,100890.16
2023-01-17T23:48:42.896Z,100853.50
2023-01-17T23:51:11.970Z,100863.44
2023-01-17T23:53:41.521Z,100855.34
2023-01-17T23:56:24.585Z,100852.78
2023-01-17T23:58:53.553Z,100854.63
